sensor_id;sensor_type;location;lat;lon;timestamp;pressure;altitude;pressure_sealevel;temperature;humidity
44131;BME280;29792;48.726;9.248;2022-07-29T00:00:36;96765.75;;;19.90;92.49
44131;BME280;29792;48.726;9.248;2022-07-29T00:03:02;96757.97;;;19.90;92.82
44131;BME280;29792;48.726;9.248;2022-07-29T00:05:27;96762.97;;;19.91;93.11
44131;BME280;29792;48.726;9.248;2022-07-29T00:07:52;96755.19;;;19.91;92.94
44131;BME280;29792;48.726;9.248;2022-07-29T00:10:18;96757.78;;;19.91;92.57
44131;BME280;29792;48.726;9.248;2022-07-29T00:12:43;96757.59;;;19.93;92.93
44131;BME280;29792;48.726;9.248;2022-07-29T00:15:09;96745.00;;;19.96;92.92
44131;BME280;29792;48.726;9.248;2022-07-29T00:17:34;96744.81;;;19.98;92.50
44131;BME280;29792;48.726;9.248;2022-07-29T00:19:59;96745.63;;;19.98;92.98
44131;BME280;29792;48.726;9.248;2022-07-29T00:22:24;96742.84;;;20.00;92.91
44131;BME280;29792;48.726;9.248;2022-07-29T00:24:50;96745.25;;;20.01;93.17
44131;BME280;29792;48.726;9.248;2022-07-29T00:27:16;96736.66;;;20.01;92.42
44131;BME280;29792;48.726;9.248;2022-07-29T00:29:41;96744.47;;;20.01;92.30
44131;BME280;29792;48.726;9.248;2022-07-29T00:32:07;96748.22;;;19.98;92.58
44131;BME280;29792;48.726;9.248;2022-07-29T00:34:32;96746.44;;;19.99;93.38
44131;BME280;29792;48.726;9.248;2022-07-29T00:37:16;96745.81;;;19.97;93.97
44131;BME280;29792;48.726;9.248;2022-07-29T00:39:42;96742.00;;;19.93;94.45
44131;BME280;29792;48.726;9.248;2022-07-29T00:42:07;96742.53;;;19.88;94.05
44131;BME280;29792;48.726;9.248;2022-07-29T00:44:40;96747.16;;;19.86;94.59
44131;BME280;29792;48.726;9.248;2022-07-29T00:47:07;96732.72;;;19.84;94.83
44131;BME280;29792;48.726;9.248;2022-07-29T00:49:33;96728.69;;;19.81;94.74
44131;BME280;29792;48.726;9.248;2022-07-29T00:52:01;96730.47;;;19.80;94.63
44131;BME280;29792;48.726;9.248;2022-07-29T00:54:27;96736.88;;;19.78;94.58
44131;BME280;29792;48.726;9.248;2022-07-29T00:56:53;96728.63;;;19.74;94.43
44131;BME280;29792;48.726;9.248;2022-07-29T00:59:18;96729.63;;;19.73;94.42
44131;BME280;29792;48.726;9.248;2022-07-29T01:01:43;96733.38;;;19.71;94.90
44131;BME280;29792;48.726;9.248;2022-07-29T01:04:08;96725.00;;;19.69;94.29
44131;BME280;29792;48.726;9.248;2022-07-29T01:06:34;96724.38;;;19.67;94.52
44131;BME280;29792;48.726;9.248;2022-07-29T01:09:00;96719.53;;;19.64;94.47
44131;BME280;29792;48.726;9.248;2022-07-29T01:11:25;96716.94;;;19.64;94.49
44131;BME280;29792;48.726;9.248;2022-07-29T01:13:51;96705.94;;;19.62;94.18
44131;BME280;29792;48.726;9.248;2022-07-29T01:16:30;96708.53;;;19.62;94.16
44131;BME280;29792;48.726;9.248;2022-07-29T01:19:01;96706.94;;;19.61;94.40
44131;BME280;29792;48.726;9.248;2022-07-29T01:21:53;96709.53;;;19.61;94.21
44131;BME280;29792;48.726;9.248;2022-07-29T01:27:02;96703.88;;;19.57;93.96
44131;BME280;29792;48.726;9.248;2022-07-29T01:29:39;96705.31;;;19.60;93.98
44131;BME280;29792;48.726;9.248;2022-07-29T01:32:15;96697.06;;;19.56;93.90
44131;BME280;29792;48.726;9.248;2022-07-29T01:40:09;96700.97;;;19.46;93.90
44131;BME280;29792;48.726;9.248;2022-07-29T01:42:39;96701.16;;;19.44;93.78
44131;BME280;29792;48.726;9.248;2022-07-29T01:45:32;96699.53;;;19.43;94.52
44131;BME280;29792;48.726;9.248;2022-07-29T01:51:29;96700.28;;;19.37;93.80
44131;BME280;29792;48.726;9.248;2022-07-29T01:56:32;96710.41;;;19.32;94.37
44131;BME280;29792;48.726;9.248;2022-07-29T01:58:59;96698.59;;;19.29;94.08
44131;BME280;29792;48.726;9.248;2022-07-29T02:01:26;96703.34;;;19.26;94.00
44131;BME280;29792;48.726;9.248;2022-07-29T02:03:53;96705.97;;;19.26;94.39
44131;BME280;29792;48.726;9.248;2022-07-29T02:06:21;96698.34;;;19.24;94.43
44131;BME280;29792;48.726;9.248;2022-07-29T02:08:48;96701.75;;;19.25;94.75
44131;BME280;29792;48.726;9.248;2022-07-29T02:11:14;96698.53;;;19.23;94.53
44131;BME280;29792;48.726;9.248;2022-07-29T02:13:40;96686.53;;;19.22;93.99
44131;BME280;29792;48.726;9.248;2022-07-29T02:18:39;96688.53;;;19.20;94.05
44131;BME280;29792;48.726;9.248;2022-07-29T02:21:06;96689.50;;;19.19;94.06
44131;BME280;29792;48.726;9.248;2022-07-29T02:23:32;96687.88;;;19.18;94.13
44131;BME280;29792;48.726;9.248;2022-07-29T02:26:00;96686.91;;;19.19;93.99
44131;BME280;29792;48.726;9.248;2022-07-29T02:28:27;96685.28;;;19.18;93.70
44131;BME280;29792;48.726;9.248;2022-07-29T02:30:55;96676.88;;;19.16;93.57
44131;BME280;29792;48.726;9.248;2022-07-29T02:33:23;96683.06;;;19.15;93.62
44131;BME280;29792;48.726;9.248;2022-07-29T02:35:49;96674.47;;;19.14;93.63
44131;BME280;29792;48.726;9.248;2022-07-29T02:38:16;96681.25;;;19.15;93.75
44131;BME280;29792;48.726;9.248;2022-07-29T02:41:03;96683.06;;;19.15;93.05
44131;BME280;29792;48.726;9.248;2022-07-29T02:43:31;96678.66;;;19.15;93.31
44131;BME280;29792;48.726;9.248;2022-07-29T02:45:59;96682.06;;;19.16;93.11
44131;BME280;29792;48.726;9.248;2022-07-29T02:48:41;96677.84;;;19.15;93.08
44131;BME280;29792;48.726;9.248;2022-07-29T02:51:19;96684.84;;;19.14;93.28
44131;BME280;29792;48.726;9.248;2022-07-29T02:53:51;96684.03;;;19.14;93.08
44131;BME280;29792;48.726;9.248;2022-07-29T02:56:23;96676.47;;;19.12;92.83
44131;BME280;29792;48.726;9.248;2022-07-29T02:58:54;96687.66;;;19.13;92.30
44131;BME280;29792;48.726;9.248;2022-07-29T03:01:23;96678.25;;;19.12;92.86
44131;BME280;29792;48.726;9.248;2022-07-29T03:03:50;96685.22;;;19.11;93.11
44131;BME280;29792;48.726;9.248;2022-07-29T03:06:18;96682.81;;;19.10;92.80
44131;BME280;29792;48.726;9.248;2022-07-29T03:08:44;96690.97;;;19.06;92.81
44131;BME280;29792;48.726;9.248;2022-07-29T03:11:12;96688.75;;;19.03;92.76
44131;BME280;29792;48.726;9.248;2022-07-29T03:13:38;96690.72;;;19.01;93.01
44131;BME280;29792;48.726;9.248;2022-07-29T03:16:04;96691.69;;;19.00;93.24
44131;BME280;29792;48.726;9.248;2022-07-29T03:18:31;96693.50;;;19.00;93.35
44131;BME280;29792;48.726;9.248;2022-07-29T03:20:56;96687.66;;;18.98;93.76
44131;BME280;29792;48.726;9.248;2022-07-29T03:23:23;96698.25;;;18.96;93.65
44131;BME280;29792;48.726;9.248;2022-07-29T03:25:52;96695.47;;;18.98;94.01
44131;BME280;29792;48.726;9.248;2022-07-29T03:28:18;96694.66;;;18.97;94.04
44131;BME280;29792;48.726;9.248;2022-07-29T03:30:44;96695.66;;;18.96;93.98
44131;BME280;29792;48.726;9.248;2022-07-29T03:33:10;96693.06;;;18.96;93.99
44131;BME280;29792;48.726;9.248;2022-07-29T03:35:35;96689.84;;;18.94;93.78
44131;BME280;29792;48.726;9.248;2022-07-29T03:38:00;96691.63;;;18.94;93.85
44131;BME280;29792;48.726;9.248;2022-07-29T03:40:31;96696.81;;;18.94;93.97
44131;BME280;29792;48.726;9.248;2022-07-29T03:42:59;96700.41;;;18.93;93.58
44131;BME280;29792;48.726;9.248;2022-07-29T03:45:25;96692.78;;;18.91;93.36
44131;BME280;29792;48.726;9.248;2022-07-29T03:47:54;96690.19;;;18.91;93.50
44131;BME280;29792;48.726;9.248;2022-07-29T03:50:22;96688.59;;;18.90;94.02
44131;BME280;29792;48.726;9.248;2022-07-29T03:52:48;96689.38;;;18.91;94.00
44131;BME280;29792;48.726;9.248;2022-07-29T03:55:14;96696.38;;;18.90;94.28
44131;BME280;29792;48.726;9.248;2022-07-29T03:57:40;96702.38;;;18.91;93.98
44131;BME280;29792;48.726;9.248;2022-07-29T04:00:08;96691.38;;;18.89;93.95
44131;BME280;29792;48.726;9.248;2022-07-29T04:02:33;96699.34;;;18.87;94.04
44131;BME280;29792;48.726;9.248;2022-07-29T04:04:59;96695.66;;;18.82;93.79
44131;BME280;29792;48.726;9.248;2022-07-29T04:07:25;96699.81;;;18.76;94.02
44131;BME280;29792;48.726;9.248;2022-07-29T04:09:50;96707.34;;;18.71;94.34
44131;BME280;29792;48.726;9.248;2022-07-29T04:12:15;96702.69;;;18.66;94.53
44131;BME280;29792;48.726;9.248;2022-07-29T04:14:41;96703.22;;;18.62;94.77
44131;BME280;29792;48.726;9.248;2022-07-29T04:17:06;96705.81;;;18.62;95.13
44131;BME280;29792;48.726;9.248;2022-07-29T04:19:32;96705.81;;;18.62;95.79
44131;BME280;29792;48.726;9.248;2022-07-29T04:22:01;96715.81;;;18.65;95.80
44131;BME280;29792;48.726;9.248;2022-07-29T04:24:26;96720.66;;;18.68;95.83
44131;BME280;29792;48.726;9.248;2022-07-29T04:26:52;96719.84;;;18.67;95.70
44131;BME280;29792;48.726;9.248;2022-07-29T04:29:17;96717.09;;;18.69;96.14
44131;BME280;29792;48.726;9.248;2022-07-29T04:31:43;96717.91;;;18.70;95.96
44131;BME280;29792;48.726;9.248;2022-07-29T04:34:08;96720.16;;;18.73;95.86
44131;BME280;29792;48.726;9.248;2022-07-29T04:36:34;96718.31;;;18.73;95.66
44131;BME280;29792;48.726;9.248;2022-07-29T04:38:59;96719.34;;;18.72;95.52
44131;BME280;29792;48.726;9.248;2022-07-29T04:41:26;96721.13;;;18.72;95.53
44131;BME280;29792;48.726;9.248;2022-07-29T04:43:51;96711.72;;;18.71;95.17
44131;BME280;29792;48.726;9.248;2022-07-29T04:46:16;96714.31;;;18.71;95.02
44131;BME280;29792;48.726;9.248;2022-07-29T04:48:42;96714.31;;;18.71;94.87
44131;BME280;29792;48.726;9.248;2022-07-29T04:51:07;96715.13;;;18.71;95.15
44131;BME280;29792;48.726;9.248;2022-07-29T04:53:32;96720.56;;;18.76;95.13
44131;BME280;29792;48.726;9.248;2022-07-29T04:55:57;96729.78;;;18.79;95.11
44131;BME280;29792;48.726;9.248;2022-07-29T04:58:23;96725.84;;;18.83;95.53
44131;BME280;29792;48.726;9.248;2022-07-29T05:00:49;96729.06;;;18.85;95.28
44131;BME280;29792;48.726;9.248;2022-07-29T05:03:14;96722.09;;;18.85;94.82
44131;BME280;29792;48.726;9.248;2022-07-29T05:05:39;96722.25;;;18.84;94.90
44131;BME280;29792;48.726;9.248;2022-07-29T05:08:05;96722.09;;;18.85;95.04
44131;BME280;29792;48.726;9.248;2022-07-29T05:10:31;96728.25;;;18.84;95.24
44131;BME280;29792;48.726;9.248;2022-07-29T05:12:56;96715.28;;;18.84;95.15
44131;BME280;29792;48.726;9.248;2022-07-29T05:15:21;96720.47;;;18.84;95.35
44131;BME280;29792;48.726;9.248;2022-07-29T05:17:46;96730.03;;;18.84;95.42
44131;BME280;29792;48.726;9.248;2022-07-29T05:20:12;96734.59;;;18.82;95.53
44131;BME280;29792;48.726;9.248;2022-07-29T05:22:37;96730.03;;;18.84;95.93
44131;BME280;29792;48.726;9.248;2022-07-29T05:25:02;96732.28;;;18.87;96.82
44131;BME280;29792;48.726;9.248;2022-07-29T05:27:28;96731.72;;;18.91;96.24
44131;BME280;29792;48.726;9.248;2022-07-29T05:29:53;96730.41;;;18.95;97.08
44131;BME280;29792;48.726;9.248;2022-07-29T05:32:18;96730.66;;;19.00;97.05
44131;BME280;29792;48.726;9.248;2022-07-29T05:34:44;96725.09;;;19.03;97.02
44131;BME280;29792;48.726;9.248;2022-07-29T05:37:09;96733.94;;;19.09;97.00
44131;BME280;29792;48.726;9.248;2022-07-29T05:39:34;96743.59;;;19.15;97.31
44131;BME280;29792;48.726;9.248;2022-07-29T05:41:59;96732.84;;;19.18;97.06
44131;BME280;29792;48.726;9.248;2022-07-29T05:44:25;96738.84;;;19.19;96.51
44131;BME280;29792;48.726;9.248;2022-07-29T05:46:50;96743.88;;;19.20;96.02
44131;BME280;29792;48.726;9.248;2022-07-29T05:49:15;96738.47;;;19.22;95.93
44131;BME280;29792;48.726;9.248;2022-07-29T05:51:41;96746.88;;;19.24;95.54
44131;BME280;29792;48.726;9.248;2022-07-29T05:54:06;96752.06;;;19.24;95.08
44131;BME280;29792;48.726;9.248;2022-07-29T05:56:31;96748.31;;;19.26;95.34
44131;BME280;29792;48.726;9.248;2022-07-29T05:58:56;96747.16;;;19.29;95.22
44131;BME280;29792;48.726;9.248;2022-07-29T06:01:22;96749.38;;;19.32;95.86
44131;BME280;29792;48.726;9.248;2022-07-29T06:03:47;96743.44;;;19.38;96.15
44131;BME280;29792;48.726;9.248;2022-07-29T06:06:12;96752.47;;;19.42;96.31
44131;BME280;29792;48.726;9.248;2022-07-29T06:08:38;96748.34;;;19.48;96.21
44131;BME280;29792;48.726;9.248;2022-07-29T06:11:04;96750.44;;;19.52;96.29
44131;BME280;29792;48.726;9.248;2022-07-29T06:13:29;96753.63;;;19.54;96.55
44131;BME280;29792;48.726;9.248;2022-07-29T06:15:55;96746.44;;;19.56;96.23
44131;BME280;29792;48.726;9.248;2022-07-29T06:18:21;96758.09;;;19.60;96.05
44131;BME280;29792;48.726;9.248;2022-07-29T06:20:51;96756.09;;;19.62;95.75
44131;BME280;29792;48.726;9.248;2022-07-29T06:23:17;96762.19;;;19.69;96.11
44131;BME280;29792;48.726;9.248;2022-07-29T06:25:42;96760.44;;;19.76;96.17
44131;BME280;29792;48.726;9.248;2022-07-29T06:28:08;96759.50;;;19.84;96.32
44131;BME280;29792;48.726;9.248;2022-07-29T06:30:33;96761.00;;;19.93;95.84
44131;BME280;29792;48.726;9.248;2022-07-29T06:32:59;96755.28;;;20.04;96.86
44131;BME280;29792;48.726;9.248;2022-07-29T06:35:25;96765.34;;;20.14;96.56
44131;BME280;29792;48.726;9.248;2022-07-29T06:37:50;96764.03;;;20.25;96.47
44131;BME280;29792;48.726;9.248;2022-07-29T06:40:16;96756.28;;;20.31;95.58
44131;BME280;29792;48.726;9.248;2022-07-29T06:43:00;96765.19;;;20.43;95.52
44131;BME280;29792;48.726;9.248;2022-07-29T06:45:25;96762.06;;;20.54;95.40
44131;BME280;29792;48.726;9.248;2022-07-29T06:47:50;96769.16;;;20.67;95.44
44131;BME280;29792;48.726;9.248;2022-07-29T06:50:16;96777.22;;;20.79;94.64
44131;BME280;29792;48.726;9.248;2022-07-29T06:52:41;96776.69;;;20.90;92.66
44131;BME280;29792;48.726;9.248;2022-07-29T06:55:07;96768.31;;;21.01;91.97
44131;BME280;29792;48.726;9.248;2022-07-29T06:57:33;96771.34;;;21.11;91.30
44131;BME280;29792;48.726;9.248;2022-07-29T06:59:59;96767.63;;;21.20;91.50
44131;BME280;29792;48.726;9.248;2022-07-29T07:02:24;96778.47;;;21.30;90.77
44131;BME280;29792;48.726;9.248;2022-07-29T07:04:49;96784.09;;;21.34;89.04
44131;BME280;29792;48.726;9.248;2022-07-29T07:07:15;96773.28;;;21.37;88.40
44131;BME280;29792;48.726;9.248;2022-07-29T07:09:40;96781.50;;;21.41;88.08
44131;BME280;29792;48.726;9.248;2022-07-29T07:12:06;96780.94;;;21.45;88.23
44131;BME280;29792;48.726;9.248;2022-07-29T07:14:31;96776.91;;;21.49;88.00
44131;BME280;29792;48.726;9.248;2022-07-29T07:16:57;96777.75;;;21.56;87.92
44131;BME280;29792;48.726;9.248;2022-07-29T07:19:22;96783.56;;;21.65;88.24
44131;BME280;29792;48.726;9.248;2022-07-29T07:21:47;96785.22;;;21.73;88.24
44131;BME280;29792;48.726;9.248;2022-07-29T07:24:13;96781.59;;;21.80;87.46
44131;BME280;29792;48.726;9.248;2022-07-29T07:26:38;96782.81;;;21.91;87.43
44131;BME280;29792;48.726;9.248;2022-07-29T07:29:04;96779.22;;;21.98;86.91
44131;BME280;29792;48.726;9.248;2022-07-29T07:31:30;96794.69;;;22.06;85.83
44131;BME280;29792;48.726;9.248;2022-07-29T07:33:55;96792.28;;;22.25;85.33
44131;BME280;29792;48.726;9.248;2022-07-29T07:36:21;96790.88;;;22.35;84.10
44131;BME280;29792;48.726;9.248;2022-07-29T07:38:46;96795.09;;;22.36;83.51
44131;BME280;29792;48.726;9.248;2022-07-29T07:41:11;96796.91;;;22.36;83.66
44131;BME280;29792;48.726;9.248;2022-07-29T07:43:37;96801.53;;;22.34;83.08
44131;BME280;29792;48.726;9.248;2022-07-29T07:46:02;96793.88;;;22.39;83.39
44131;BME280;29792;48.726;9.248;2022-07-29T07:48:28;96797.88;;;22.48;82.95
44131;BME280;29792;48.726;9.248;2022-07-29T07:50:54;96794.66;;;22.59;82.43
44131;BME280;29792;48.726;9.248;2022-07-29T07:53:19;96804.69;;;22.69;81.64
44131;BME280;29792;48.726;9.248;2022-07-29T07:55:44;96806.31;;;22.83;81.21
44131;BME280;29792;48.726;9.248;2022-07-29T07:58:10;96795.63;;;22.91;79.83
44131;BME280;29792;48.726;9.248;2022-07-29T08:00:35;96800.84;;;22.98;79.19
44131;BME280;29792;48.726;9.248;2022-07-29T08:03:01;96798.00;;;23.06;78.98
44131;BME280;29792;48.726;9.248;2022-07-29T08:05:27;96802.59;;;23.17;79.14
44131;BME280;29792;48.726;9.248;2022-07-29T08:07:52;96796.13;;;23.26;78.49
44131;BME280;29792;48.726;9.248;2022-07-29T08:10:19;96796.03;;;23.39;78.03
44131;BME280;29792;48.726;9.248;2022-07-29T08:13:05;96800.41;;;23.58;76.99
44131;BME280;29792;48.726;9.248;2022-07-29T08:15:31;96801.09;;;23.79;76.43
44131;BME280;29792;48.726;9.248;2022-07-29T08:17:56;96795.72;;;23.99;77.06
44131;BME280;29792;48.726;9.248;2022-07-29T08:20:22;96798.25;;;24.12;75.16
44131;BME280;29792;48.726;9.248;2022-07-29T08:22:47;96794.38;;;24.21;74.27
44131;BME280;29792;48.726;9.248;2022-07-29T08:25:12;96794.97;;;24.23;73.46
44131;BME280;29792;48.726;9.248;2022-07-29T08:27:37;96797.16;;;24.26;72.26
44131;BME280;29792;48.726;9.248;2022-07-29T08:30:03;96799.28;;;24.36;73.19
44131;BME280;29792;48.726;9.248;2022-07-29T08:32:29;96799.75;;;24.51;72.38
44131;BME280;29792;48.726;9.248;2022-07-29T08:34:56;96793.59;;;24.63;71.87
44131;BME280;29792;48.726;9.248;2022-07-29T08:37:21;96794.06;;;24.79;71.86
44131;BME280;29792;48.726;9.248;2022-07-29T08:39:46;96794.09;;;24.97;71.37
44131;BME280;29792;48.726;9.248;2022-07-29T08:42:12;96799.69;;;25.19;71.47
44131;BME280;29792;48.726;9.248;2022-07-29T08:44:37;96803.31;;;25.36;70.54
44131;BME280;29792;48.726;9.248;2022-07-29T08:47:03;96799.06;;;25.53;69.63
44131;BME280;29792;48.726;9.248;2022-07-29T08:49:28;96795.19;;;25.86;67.94
44131;BME280;29792;48.726;9.248;2022-07-29T08:51:55;96793.75;;;26.13;67.51
44131;BME280;29792;48.726;9.248;2022-07-29T08:54:22;96790.63;;;26.34;67.48
44131;BME280;29792;48.726;9.248;2022-07-29T08:56:49;96792.44;;;26.45;65.87
44131;BME280;29792;48.726;9.248;2022-07-29T08:59:16;96794.50;;;26.43;64.96
44131;BME280;29792;48.726;9.248;2022-07-29T09:01:43;96792.56;;;26.39;64.80
44131;BME280;29792;48.726;9.248;2022-07-29T09:04:11;96798.16;;;26.42;66.78
44131;BME280;29792;48.726;9.248;2022-07-29T09:06:40;96807.28;;;26.51;67.11
44131;BME280;29792;48.726;9.248;2022-07-29T09:09:07;96808.22;;;26.57;66.40
44131;BME280;29792;48.726;9.248;2022-07-29T09:11:32;96805.47;;;26.64;66.57
44131;BME280;29792;48.726;9.248;2022-07-29T09:13:58;96805.25;;;26.65;65.19
44131;BME280;29792;48.726;9.248;2022-07-29T09:16:23;96808.34;;;26.74;65.16
44131;BME280;29792;48.726;9.248;2022-07-29T09:18:48;96802.94;;;26.80;64.92
44131;BME280;29792;48.726;9.248;2022-07-29T09:21:16;96811.41;;;26.82;64.41
44131;BME280;29792;48.726;9.248;2022-07-29T09:24:06;96807.28;;;26.86;65.98
44131;BME280;29792;48.726;9.248;2022-07-29T09:26:35;96809.34;;;26.96;65.58
44131;BME280;29792;48.726;9.248;2022-07-29T09:29:08;96806.81;;;27.01;63.41
44131;BME280;29792;48.726;9.248;2022-07-29T09:31:37;96805.47;;;26.99;62.75
44131;BME280;29792;48.726;9.248;2022-07-29T09:34:04;96803.97;;;27.03;63.67
44131;BME280;29792;48.726;9.248;2022-07-29T09:36:29;96798.34;;;27.11;64.31
44131;BME280;29792;48.726;9.248;2022-07-29T09:38:59;96799.13;;;27.23;63.92
44131;BME280;29792;48.726;9.248;2022-07-29T09:41:28;96790.38;;;27.34;64.08
44131;BME280;29792;48.726;9.248;2022-07-29T09:43:58;96801.34;;;27.43;64.05
44131;BME280;29792;48.726;9.248;2022-07-29T09:46:25;96792.66;;;27.54;63.85
44131;BME280;29792;48.726;9.248;2022-07-29T09:49:09;96787.31;;;27.65;63.31
44131;BME280;29792;48.726;9.248;2022-07-29T09:51:36;96790.63;;;27.73;62.42
44131;BME280;29792;48.726;9.248;2022-07-29T09:54:01;96787.34;;;27.82;61.45
44131;BME280;29792;48.726;9.248;2022-07-29T09:56:40;96786.72;;;27.92;62.29
44131;BME280;29792;48.726;9.248;2022-07-29T09:59:06;96781.44;;;27.92;62.20
44131;BME280;29792;48.726;9.248;2022-07-29T10:01:32;96795.34;;;27.87;61.53
44131;BME280;29792;48.726;9.248;2022-07-29T10:03:57;96795.00;;;27.84;61.82
44131;BME280;29792;48.726;9.248;2022-07-29T10:06:22;96785.75;;;27.81;61.70
44131;BME280;29792;48.726;9.248;2022-07-29T10:08:48;96795.72;;;27.79;60.82
44131;BME280;29792;48.726;9.248;2022-07-29T10:11:16;96792.75;;;27.76;59.81
44131;BME280;29792;48.726;9.248;2022-07-29T10:13:45;96796.66;;;27.73;59.37
44131;BME280;29792;48.726;9.248;2022-07-29T10:16:12;96790.13;;;27.76;61.54
44131;BME280;29792;48.726;9.248;2022-07-29T10:18:40;96782.34;;;27.81;62.14
44131;BME280;29792;48.726;9.248;2022-07-29T10:21:06;96775.53;;;27.85;60.57
44131;BME280;29792;48.726;9.248;2022-07-29T10:23:33;96770.63;;;27.88;60.17
44131;BME280;29792;48.726;9.248;2022-07-29T10:25:59;96774.34;;;27.92;61.01
44131;BME280;29792;48.726;9.248;2022-07-29T10:28:25;96765.50;;;27.98;61.24
44131;BME280;29792;48.726;9.248;2022-07-29T10:30:51;96771.03;;;27.97;58.19
44131;BME280;29792;48.726;9.248;2022-07-29T10:33:40;96770.63;;;27.88;58.24
44131;BME280;29792;48.726;9.248;2022-07-29T10:36:45;96766.78;;;27.79;58.10
44131;BME280;29792;48.726;9.248;2022-07-29T10:39:30;96771.94;;;27.74;59.53
44131;BME280;29792;48.726;9.248;2022-07-29T10:42:22;96768.41;;;27.68;60.14
44131;BME280;29792;48.726;9.248;2022-07-29T10:44:50;96759.53;;;27.58;59.79
44131;BME280;29792;48.726;9.248;2022-07-29T10:47:23;96755.34;;;27.45;59.21
44131;BME280;29792;48.726;9.248;2022-07-29T10:49:56;96751.25;;;27.38;59.95
44131;BME280;29792;48.726;9.248;2022-07-29T10:52:22;96752.66;;;27.28;60.20
44131;BME280;29792;48.726;9.248;2022-07-29T10:54:50;96748.81;;;27.19;60.08
44131;BME280;29792;48.726;9.248;2022-07-29T10:57:21;96757.53;;;27.08;58.77
44131;BME280;29792;48.726;9.248;2022-07-29T10:59:49;96756.31;;;26.99;59.93
44131;BME280;29792;48.726;9.248;2022-07-29T11:05:07;96764.09;;;26.82;60.33
44131;BME280;29792;48.726;9.248;2022-07-29T11:07:35;96771.75;;;26.72;60.91
44131;BME280;29792;48.726;9.248;2022-07-29T11:15:04;96787.03;;;26.17;57.15
44131;BME280;29792;48.726;9.248;2022-07-29T11:20:44;96813.34;;;25.39;59.68
44131;BME280;29792;48.726;9.248;2022-07-29T11:23:31;96851.16;;;24.95;63.55
44131;BME280;29792;48.726;9.248;2022-07-29T11:28:36;96814.97;;;22.24;57.47
44131;BME280;29792;48.726;9.248;2022-07-29T11:31:04;96831.38;;;20.90;62.49
44131;BME280;29792;48.726;9.248;2022-07-29T11:33:32;96848.09;;;20.04;66.33
44131;BME280;29792;48.726;9.248;2022-07-29T11:36:12;96847.34;;;19.38;70.70
44131;BME280;29792;48.726;9.248;2022-07-29T11:38:38;96842.84;;;18.96;73.66
44131;BME280;29792;48.726;9.248;2022-07-29T11:41:23;96845.31;;;18.60;77.24
44131;BME280;29792;48.726;9.248;2022-07-29T11:43:56;96843.88;;;18.35;80.33
44131;BME280;29792;48.726;9.248;2022-07-29T11:46:45;96843.38;;;18.16;82.98
44131;BME280;29792;48.726;9.248;2022-07-29T11:49:25;96841.28;;;17.97;84.60
44131;BME280;29792;48.726;9.248;2022-07-29T11:51:55;96849.78;;;17.83;86.32
44131;BME280;29792;48.726;9.248;2022-07-29T11:54:26;96848.84;;;17.76;87.98
44131;BME280;29792;48.726;9.248;2022-07-29T11:56:52;96843.72;;;17.68;88.99
44131;BME280;29792;48.726;9.248;2022-07-29T11:59:19;96846.66;;;17.65;90.30
44131;BME280;29792;48.726;9.248;2022-07-29T12:01:56;96839.34;;;17.60;91.68
44131;BME280;29792;48.726;9.248;2022-07-29T12:04:21;96838.09;;;17.56;92.17
44131;BME280;29792;48.726;9.248;2022-07-29T12:06:52;96834.22;;;17.52;93.85
44131;BME280;29792;48.726;9.248;2022-07-29T12:09:19;96835.22;;;17.51;94.95
44131;BME280;29792;48.726;9.248;2022-07-29T12:11:45;96827.25;;;17.52;96.16
44131;BME280;29792;48.726;9.248;2022-07-29T12:14:30;96822.88;;;17.53;96.81
44131;BME280;29792;48.726;9.248;2022-07-29T12:16:56;96821.63;;;17.49;97.36
44131;BME280;29792;48.726;9.248;2022-07-29T12:19:22;96807.06;;;17.48;97.82
44131;BME280;29792;48.726;9.248;2022-07-29T12:21:50;96816.28;;;17.50;98.95
44131;BME280;29792;48.726;9.248;2022-07-29T12:24:16;96814.94;;;17.54;99.69
44131;BME280;29792;48.726;9.248;2022-07-29T12:26:50;96811.09;;;17.50;99.71
44131;BME280;29792;48.726;9.248;2022-07-29T12:29:16;96821.16;;;17.45;99.28
44131;BME280;29792;48.726;9.248;2022-07-29T12:31:42;96813.09;;;17.40;99.81
44131;BME280;29792;48.726;9.248;2022-07-29T12:34:09;96817.13;;;17.43;100.00
44131;BME280;29792;48.726;9.248;2022-07-29T12:36:34;96818.41;;;17.47;100.00
44131;BME280;29792;48.726;9.248;2022-07-29T12:39:00;96828.44;;;17.50;100.00
44131;BME280;29792;48.726;9.248;2022-07-29T12:41:28;96820.78;;;17.57;100.00
44131;BME280;29792;48.726;9.248;2022-07-29T12:43:54;96815.06;;;17.61;100.00
44131;BME280;29792;48.726;9.248;2022-07-29T12:46:19;96809.88;;;17.69;100.00
44131;BME280;29792;48.726;9.248;2022-07-29T12:48:52;96810.19;;;17.74;100.00
44131;BME280;29792;48.726;9.248;2022-07-29T12:51:37;96811.78;;;17.75;100.00
44131;BME280;29792;48.726;9.248;2022-07-29T12:54:06;96803.66;;;17.78;100.00
44131;BME280;29792;48.726;9.248;2022-07-29T12:56:32;96797.16;;;17.82;100.00
44131;BME280;29792;48.726;9.248;2022-07-29T12:58:57;96805.38;;;17.86;100.00
44131;BME280;29792;48.726;9.248;2022-07-29T13:01:23;96808.88;;;17.93;100.00
44131;BME280;29792;48.726;9.248;2022-07-29T13:03:56;96816.97;;;17.98;100.00
44131;BME280;29792;48.726;9.248;2022-07-29T13:06:36;96809.47;;;18.03;100.00
44131;BME280;29792;48.726;9.248;2022-07-29T13:09:05;96809.41;;;18.11;100.00
44131;BME280;29792;48.726;9.248;2022-07-29T13:14:02;96812.66;;;18.28;100.00
44131;BME280;29792;48.726;9.248;2022-07-29T13:16:27;96822.31;;;18.34;100.00
44131;BME280;29792;48.726;9.248;2022-07-29T13:19:11;96837.22;;;18.40;100.00
44131;BME280;29792;48.726;9.248;2022-07-29T13:21:38;96842.31;;;18.48;100.00
44131;BME280;29792;48.726;9.248;2022-07-29T13:24:05;96849.56;;;18.53;100.00
44131;BME280;29792;48.726;9.248;2022-07-29T13:26:31;96851.66;;;18.57;100.00
44131;BME280;29792;48.726;9.248;2022-07-29T13:28:56;96853.09;;;18.60;100.00
44131;BME280;29792;48.726;9.248;2022-07-29T13:31:21;96849.19;;;18.64;100.00
44131;BME280;29792;48.726;9.248;2022-07-29T13:33:47;96852.03;;;18.69;100.00
44131;BME280;29792;48.726;9.248;2022-07-29T13:36:13;96844.34;;;18.76;100.00